sensor_id;sensor_type;location;lat;lon;timestamp;P1;durP1;ratioP1;P2;durP2;ratioP2
21480;SDS011;10902;48.158;8.634;2022-12-29T00:02:02;5.50;;;2.10;;
21480;SDS011;10902;48.158;8.634;2022-12-29T00:04:28;5.60;;;2.10;;
21480;SDS011;10902;48.158;8.634;2022-12-29T00:06:53;5.32;;;2.50;;
21480;SDS011;10902;48.158;8.634;2022-12-29T00:09:19;5.13;;;2.72;;
21480;SDS011;10902;48.158;8.634;2022-12-29T00:11:45;5.78;;;2.67;;
21480;SDS011;10902;48.158;8.634;2022-12-29T00:14:11;6.70;;;2.95;;
21480;SDS011;10902;48.158;8.634;2022-12-29T00:16:55;5.13;;;2.20;;
21480;SDS011;10902;48.158;8.634;2022-12-29T00:19:22;5.15;;;2.15;;
21480;SDS011;10902;48.158;8.634;2022-12-29T00:22:08;5.20;;;2.53;;
21480;SDS011;10902;48.158;8.634;2022-12-29T00:24:54;4.97;;;2.22;;
21480;SDS011;10902;48.158;8.634;2022-12-29T00:27:26;6.60;;;2.17;;
21480;SDS011;10902;48.158;8.634;2022-12-29T00:30:13;5.70;;;2.20;;
21480;SDS011;10902;48.158;8.634;2022-12-29T00:33:08;4.65;;;2.28;;
21480;SDS011;10902;48.158;8.634;2022-12-29T00:35:58;5.05;;;2.38;;
21480;SDS011;10902;48.158;8.634;2022-12-29T00:38:27;3.90;;;2.00;;
21480;SDS011;10902;48.158;8.634;2022-12-29T00:41:12;4.85;;;1.88;;
21480;SDS011;10902;48.158;8.634;2022-12-29T00:43:56;5.35;;;2.10;;
21480;SDS011;10902;48.158;8.634;2022-12-29T00:46:34;4.97;;;2.20;;
21480;SDS011;10902;48.158;8.634;2022-12-29T00:49:03;5.40;;;1.85;;
21480;SDS011;10902;48.158;8.634;2022-12-29T00:51:49;5.90;;;2.53;;
21480;SDS011;10902;48.158;8.634;2022-12-29T00:54:15;3.70;;;2.08;;
21480;SDS011;10902;48.158;8.634;2022-12-29T00:56:41;5.63;;;2.13;;
21480;SDS011;10902;48.158;8.634;2022-12-29T00:59:07;6.20;;;2.40;;
21480;SDS011;10902;48.158;8.634;2022-12-29T01:01:35;6.15;;;1.83;;
21480;SDS011;10902;48.158;8.634;2022-12-29T01:04:01;4.68;;;2.08;;
21480;SDS011;10902;48.158;8.634;2022-12-29T01:06:28;4.05;;;2.00;;
21480;SDS011;10902;48.158;8.634;2022-12-29T01:08:53;5.30;;;1.85;;
21480;SDS011;10902;48.158;8.634;2022-12-29T01:11:38;5.82;;;1.92;;
21480;SDS011;10902;48.158;8.634;2022-12-29T01:14:04;5.18;;;2.20;;
21480;SDS011;10902;48.158;8.634;2022-12-29T01:16:30;4.50;;;2.08;;
21480;SDS011;10902;48.158;8.634;2022-12-29T01:18:56;6.13;;;2.63;;
21480;SDS011;10902;48.158;8.634;2022-12-29T01:21:22;4.28;;;2.08;;
21480;SDS011;10902;48.158;8.634;2022-12-29T01:23:48;3.72;;;1.80;;
21480;SDS011;10902;48.158;8.634;2022-12-29T01:26:14;4.28;;;2.00;;
21480;SDS011;10902;48.158;8.634;2022-12-29T01:28:41;4.85;;;2.10;;
21480;SDS011;10902;48.158;8.634;2022-12-29T01:31:08;4.88;;;1.90;;
21480;SDS011;10902;48.158;8.634;2022-12-29T01:33:34;5.43;;;2.15;;
21480;SDS011;10902;48.158;8.634;2022-12-29T01:36:00;4.13;;;1.67;;
21480;SDS011;10902;48.158;8.634;2022-12-29T01:38:27;5.05;;;1.70;;
21480;SDS011;10902;48.158;8.634;2022-12-29T01:40:52;6.30;;;1.90;;
21480;SDS011;10902;48.158;8.634;2022-12-29T01:43:18;5.60;;;1.50;;
21480;SDS011;10902;48.158;8.634;2022-12-29T01:45:44;4.40;;;1.70;;
21480;SDS011;10902;48.158;8.634;2022-12-29T01:48:15;4.40;;;2.03;;
21480;SDS011;10902;48.158;8.634;2022-12-29T01:50:43;4.25;;;1.45;;
21480;SDS011;10902;48.158;8.634;2022-12-29T01:53:16;4.18;;;1.65;;
21480;SDS011;10902;48.158;8.634;2022-12-29T01:55:46;6.63;;;2.08;;
21480;SDS011;10902;48.158;8.634;2022-12-29T01:58:17;4.45;;;1.70;;
21480;SDS011;10902;48.158;8.634;2022-12-29T02:00:45;4.88;;;1.48;;
21480;SDS011;10902;48.158;8.634;2022-12-29T02:03:10;6.50;;;1.90;;
21480;SDS011;10902;48.158;8.634;2022-12-29T02:08:09;4.15;;;1.70;;
21480;SDS011;10902;48.158;8.634;2022-12-29T02:10:37;4.38;;;1.67;;
21480;SDS011;10902;48.158;8.634;2022-12-29T02:13:05;4.45;;;1.67;;
21480;SDS011;10902;48.158;8.634;2022-12-29T02:15:34;6.13;;;2.10;;
21480;SDS011;10902;48.158;8.634;2022-12-29T02:18:22;4.43;;;1.90;;
21480;SDS011;10902;48.158;8.634;2022-12-29T02:26:34;4.13;;;1.77;;
21480;SDS011;10902;48.158;8.634;2022-12-29T02:37:39;4.68;;;1.48;;
21480;SDS011;10902;48.158;8.634;2022-12-29T02:40:18;4.78;;;1.40;;
21480;SDS011;10902;48.158;8.634;2022-12-29T02:42:49;5.45;;;1.50;;
21480;SDS011;10902;48.158;8.634;2022-12-29T02:50:43;3.35;;;1.30;;
21480;SDS011;10902;48.158;8.634;2022-12-29T02:53:26;4.15;;;1.30;;
21480;SDS011;10902;48.158;8.634;2022-12-29T02:56:13;4.25;;;1.55;;
21480;SDS011;10902;48.158;8.634;2022-12-29T02:58:39;4.65;;;1.40;;
21480;SDS011;10902;48.158;8.634;2022-12-29T03:12:25;4.50;;;1.42;;
21480;SDS011;10902;48.158;8.634;2022-12-29T03:15:34;3.17;;;1.30;;
21480;SDS011;10902;48.158;8.634;2022-12-29T03:24:32;4.55;;;1.30;;
21480;SDS011;10902;48.158;8.634;2022-12-29T03:27:04;3.40;;;1.20;;
21480;SDS011;10902;48.158;8.634;2022-12-29T03:29:33;5.60;;;1.50;;
21480;SDS011;10902;48.158;8.634;2022-12-29T03:32:02;4.28;;;1.25;;
21480;SDS011;10902;48.158;8.634;2022-12-29T03:34:31;4.53;;;1.42;;
21480;SDS011;10902;48.158;8.634;2022-12-29T03:37:13;7.70;;;1.50;;
21480;SDS011;10902;48.158;8.634;2022-12-29T03:39:42;3.55;;;1.50;;
21480;SDS011;10902;48.158;8.634;2022-12-29T03:42:09;4.03;;;1.45;;
21480;SDS011;10902;48.158;8.634;2022-12-29T03:44:39;3.65;;;1.30;;
21480;SDS011;10902;48.158;8.634;2022-12-29T03:47:07;3.65;;;1.10;;
21480;SDS011;10902;48.158;8.634;2022-12-29T03:49:34;4.65;;;1.60;;
21480;SDS011;10902;48.158;8.634;2022-12-29T03:52:00;4.97;;;1.50;;
21480;SDS011;10902;48.158;8.634;2022-12-29T03:54:26;4.45;;;1.25;;
21480;SDS011;10902;48.158;8.634;2022-12-29T03:56:51;3.85;;;1.35;;
21480;SDS011;10902;48.158;8.634;2022-12-29T03:59:17;3.42;;;1.40;;
21480;SDS011;10902;48.158;8.634;2022-12-29T04:01:42;3.88;;;1.50;;
21480;SDS011;10902;48.158;8.634;2022-12-29T04:04:08;3.70;;;1.63;;
21480;SDS011;10902;48.158;8.634;2022-12-29T04:06:34;3.53;;;1.42;;
21480;SDS011;10902;48.158;8.634;2022-12-29T04:08:59;4.15;;;1.50;;
21480;SDS011;10902;48.158;8.634;2022-12-29T04:11:25;4.68;;;1.50;;
21480;SDS011;10902;48.158;8.634;2022-12-29T04:13:51;3.38;;;1.30;;
21480;SDS011;10902;48.158;8.634;2022-12-29T04:16:16;4.80;;;1.27;;
21480;SDS011;10902;48.158;8.634;2022-12-29T04:18:42;5.65;;;1.60;;
21480;SDS011;10902;48.158;8.634;2022-12-29T04:21:07;3.92;;;1.50;;
21480;SDS011;10902;48.158;8.634;2022-12-29T04:23:34;4.75;;;1.65;;
21480;SDS011;10902;48.158;8.634;2022-12-29T04:26:01;4.43;;;1.52;;
21480;SDS011;10902;48.158;8.634;2022-12-29T04:28:27;3.50;;;1.33;;
21480;SDS011;10902;48.158;8.634;2022-12-29T04:30:53;4.32;;;1.58;;
21480;SDS011;10902;48.158;8.634;2022-12-29T04:33:19;3.45;;;1.20;;
21480;SDS011;10902;48.158;8.634;2022-12-29T04:35:45;3.67;;;1.67;;
21480;SDS011;10902;48.158;8.634;2022-12-29T04:38:11;3.83;;;1.23;;
21480;SDS011;10902;48.158;8.634;2022-12-29T04:40:38;5.43;;;1.55;;
21480;SDS011;10902;48.158;8.634;2022-12-29T04:43:05;3.95;;;1.40;;
21480;SDS011;10902;48.158;8.634;2022-12-29T04:45:31;3.17;;;1.23;;
21480;SDS011;10902;48.158;8.634;2022-12-29T04:47:57;4.93;;;1.63;;
21480;SDS011;10902;48.158;8.634;2022-12-29T04:50:22;3.85;;;1.40;;
21480;SDS011;10902;48.158;8.634;2022-12-29T04:52:48;5.65;;;1.70;;
21480;SDS011;10902;48.158;8.634;2022-12-29T04:55:13;3.67;;;1.60;;
21480;SDS011;10902;48.158;8.634;2022-12-29T04:57:39;3.90;;;1.55;;
21480;SDS011;10902;48.158;8.634;2022-12-29T05:00:05;3.72;;;1.45;;
21480;SDS011;10902;48.158;8.634;2022-12-29T05:02:31;4.60;;;1.30;;
21480;SDS011;10902;48.158;8.634;2022-12-29T05:04:57;4.05;;;1.52;;
21480;SDS011;10902;48.158;8.634;2022-12-29T05:07:22;6.15;;;1.63;;
21480;SDS011;10902;48.158;8.634;2022-12-29T05:09:48;5.20;;;1.42;;
21480;SDS011;10902;48.158;8.634;2022-12-29T05:12:14;4.57;;;1.33;;
21480;SDS011;10902;48.158;8.634;2022-12-29T05:14:39;4.93;;;1.55;;
21480;SDS011;10902;48.158;8.634;2022-12-29T05:17:05;4.65;;;1.40;;
21480;SDS011;10902;48.158;8.634;2022-12-29T05:19:30;3.53;;;1.20;;
21480;SDS011;10902;48.158;8.634;2022-12-29T05:21:56;3.22;;;1.42;;
21480;SDS011;10902;48.158;8.634;2022-12-29T05:24:21;4.57;;;1.63;;
21480;SDS011;10902;48.158;8.634;2022-12-29T05:26:47;5.03;;;1.85;;
21480;SDS011;10902;48.158;8.634;2022-12-29T05:29:13;6.80;;;1.98;;
21480;SDS011;10902;48.158;8.634;2022-12-29T05:31:38;4.25;;;1.80;;
21480;SDS011;10902;48.158;8.634;2022-12-29T05:34:04;3.92;;;1.60;;
21480;SDS011;10902;48.158;8.634;2022-12-29T05:36:30;4.82;;;1.60;;
21480;SDS011;10902;48.158;8.634;2022-12-29T05:38:55;4.90;;;1.48;;
21480;SDS011;10902;48.158;8.634;2022-12-29T05:41:21;4.35;;;1.58;;
21480;SDS011;10902;48.158;8.634;2022-12-29T05:43:47;5.20;;;1.88;;
21480;SDS011;10902;48.158;8.634;2022-12-29T05:46:12;4.72;;;1.33;;
21480;SDS011;10902;48.158;8.634;2022-12-29T05:48:38;3.67;;;1.40;;
21480;SDS011;10902;48.158;8.634;2022-12-29T05:51:03;4.47;;;1.60;;
21480;SDS011;10902;48.158;8.634;2022-12-29T05:53:29;4.15;;;1.42;;
21480;SDS011;10902;48.158;8.634;2022-12-29T05:55:55;4.85;;;1.83;;
21480;SDS011;10902;48.158;8.634;2022-12-29T05:58:20;3.78;;;1.60;;
21480;SDS011;10902;48.158;8.634;2022-12-29T06:00:46;6.03;;;1.67;;
21480;SDS011;10902;48.158;8.634;2022-12-29T06:03:11;5.47;;;1.52;;
21480;SDS011;10902;48.158;8.634;2022-12-29T06:05:37;4.70;;;1.60;;
21480;SDS011;10902;48.158;8.634;2022-12-29T06:08:02;6.65;;;2.67;;
21480;SDS011;10902;48.158;8.634;2022-12-29T06:10:28;4.53;;;1.50;;
21480;SDS011;10902;48.158;8.634;2022-12-29T06:12:54;6.50;;;1.50;;
21480;SDS011;10902;48.158;8.634;2022-12-29T06:15:19;4.05;;;1.60;;
21480;SDS011;10902;48.158;8.634;2022-12-29T06:17:45;5.80;;;1.90;;
21480;SDS011;10902;48.158;8.634;2022-12-29T06:20:11;5.82;;;1.95;;
21480;SDS011;10902;48.158;8.634;2022-12-29T06:22:36;5.82;;;1.70;;
21480;SDS011;10902;48.158;8.634;2022-12-29T06:25:02;5.93;;;1.67;;
21480;SDS011;10902;48.158;8.634;2022-12-29T06:27:30;7.60;;;1.65;;
21480;SDS011;10902;48.158;8.634;2022-12-29T06:29:56;5.25;;;1.67;;
21480;SDS011;10902;48.158;8.634;2022-12-29T06:32:21;4.38;;;1.63;;
21480;SDS011;10902;48.158;8.634;2022-12-29T06:34:47;4.60;;;1.55;;
21480;SDS011;10902;48.158;8.634;2022-12-29T06:37:13;6.43;;;2.28;;
21480;SDS011;10902;48.158;8.634;2022-12-29T06:39:39;4.78;;;1.40;;
21480;SDS011;10902;48.158;8.634;2022-12-29T06:42:05;5.82;;;1.60;;
21480;SDS011;10902;48.158;8.634;2022-12-29T06:44:30;4.32;;;1.60;;
21480;SDS011;10902;48.158;8.634;2022-12-29T06:46:56;4.63;;;1.70;;
21480;SDS011;10902;48.158;8.634;2022-12-29T06:49:22;5.50;;;1.58;;
21480;SDS011;10902;48.158;8.634;2022-12-29T06:51:48;4.07;;;1.58;;
21480;SDS011;10902;48.158;8.634;2022-12-29T06:54:13;3.58;;;1.45;;
21480;SDS011;10902;48.158;8.634;2022-12-29T06:56:39;4.22;;;1.60;;
21480;SDS011;10902;48.158;8.634;2022-12-29T06:59:05;4.90;;;1.77;;
21480;SDS011;10902;48.158;8.634;2022-12-29T07:01:30;5.20;;;1.83;;
21480;SDS011;10902;48.158;8.634;2022-12-29T07:03:56;4.82;;;1.75;;
21480;SDS011;10902;48.158;8.634;2022-12-29T07:06:22;3.58;;;1.60;;
21480;SDS011;10902;48.158;8.634;2022-12-29T07:08:48;5.13;;;1.60;;
21480;SDS011;10902;48.158;8.634;2022-12-29T07:11:14;3.50;;;1.50;;
21480;SDS011;10902;48.158;8.634;2022-12-29T07:13:39;6.28;;;2.10;;
21480;SDS011;10902;48.158;8.634;2022-12-29T07:16:08;5.90;;;2.28;;
21480;SDS011;10902;48.158;8.634;2022-12-29T07:18:35;6.75;;;1.90;;
21480;SDS011;10902;48.158;8.634;2022-12-29T07:21:00;5.00;;;2.03;;
21480;SDS011;10902;48.158;8.634;2022-12-29T07:23:27;4.85;;;2.10;;
21480;SDS011;10902;48.158;8.634;2022-12-29T07:25:59;6.70;;;2.50;;
21480;SDS011;10902;48.158;8.634;2022-12-29T07:28:32;5.22;;;2.00;;
21480;SDS011;10902;48.158;8.634;2022-12-29T07:31:02;4.15;;;1.92;;
21480;SDS011;10902;48.158;8.634;2022-12-29T07:33:28;4.90;;;1.80;;
21480;SDS011;10902;48.158;8.634;2022-12-29T07:35:54;6.72;;;2.08;;
21480;SDS011;10902;48.158;8.634;2022-12-29T07:38:20;4.95;;;1.98;;
21480;SDS011;10902;48.158;8.634;2022-12-29T07:40:46;5.25;;;2.35;;
21480;SDS011;10902;48.158;8.634;2022-12-29T07:43:11;5.35;;;2.13;;
21480;SDS011;10902;48.158;8.634;2022-12-29T07:45:37;5.28;;;2.00;;
21480;SDS011;10902;48.158;8.634;2022-12-29T07:48:03;5.78;;;2.00;;
21480;SDS011;10902;48.158;8.634;2022-12-29T07:50:30;5.38;;;2.00;;
21480;SDS011;10902;48.158;8.634;2022-12-29T07:52:56;6.32;;;1.95;;
21480;SDS011;10902;48.158;8.634;2022-12-29T07:55:21;4.75;;;2.08;;
21480;SDS011;10902;48.158;8.634;2022-12-29T07:57:47;4.18;;;1.80;;
21480;SDS011;10902;48.158;8.634;2022-12-29T08:00:13;5.82;;;1.88;;
21480;SDS011;10902;48.158;8.634;2022-12-29T08:02:39;5.03;;;1.90;;
21480;SDS011;10902;48.158;8.634;2022-12-29T08:05:04;5.75;;;1.98;;
21480;SDS011;10902;48.158;8.634;2022-12-29T08:07:30;7.25;;;1.88;;
21480;SDS011;10902;48.158;8.634;2022-12-29T08:09:56;6.95;;;3.13;;
21480;SDS011;10902;48.158;8.634;2022-12-29T08:12:22;6.45;;;2.40;;
21480;SDS011;10902;48.158;8.634;2022-12-29T08:14:48;6.38;;;2.03;;
21480;SDS011;10902;48.158;8.634;2022-12-29T08:17:14;5.43;;;2.00;;
21480;SDS011;10902;48.158;8.634;2022-12-29T08:19:39;6.35;;;2.05;;
21480;SDS011;10902;48.158;8.634;2022-12-29T08:22:06;6.85;;;2.97;;
21480;SDS011;10902;48.158;8.634;2022-12-29T08:24:31;5.05;;;1.85;;
21480;SDS011;10902;48.158;8.634;2022-12-29T08:26:57;6.93;;;1.98;;
21480;SDS011;10902;48.158;8.634;2022-12-29T08:29:22;4.28;;;1.92;;
21480;SDS011;10902;48.158;8.634;2022-12-29T08:31:48;5.18;;;2.45;;
21480;SDS011;10902;48.158;8.634;2022-12-29T08:34:14;4.80;;;2.03;;
21480;SDS011;10902;48.158;8.634;2022-12-29T08:36:39;7.32;;;2.30;;
21480;SDS011;10902;48.158;8.634;2022-12-29T08:39:05;4.43;;;2.00;;
21480;SDS011;10902;48.158;8.634;2022-12-29T08:41:30;6.18;;;2.20;;
21480;SDS011;10902;48.158;8.634;2022-12-29T08:43:56;5.63;;;2.50;;
21480;SDS011;10902;48.158;8.634;2022-12-29T08:46:22;6.13;;;2.42;;
21480;SDS011;10902;48.158;8.634;2022-12-29T08:48:47;7.60;;;2.83;;
21480;SDS011;10902;48.158;8.634;2022-12-29T08:51:13;5.75;;;2.30;;
21480;SDS011;10902;48.158;8.634;2022-12-29T08:53:39;4.95;;;2.13;;
21480;SDS011;10902;48.158;8.634;2022-12-29T08:56:04;6.78;;;2.97;;
21480;SDS011;10902;48.158;8.634;2022-12-29T08:58:30;5.18;;;2.35;;
21480;SDS011;10902;48.158;8.634;2022-12-29T09:00:56;5.95;;;2.33;;
21480;SDS011;10902;48.158;8.634;2022-12-29T09:03:23;6.05;;;2.38;;
21480;SDS011;10902;48.158;8.634;2022-12-29T09:05:50;5.03;;;2.63;;
21480;SDS011;10902;48.158;8.634;2022-12-29T09:08:17;5.63;;;2.10;;
21480;SDS011;10902;48.158;8.634;2022-12-29T09:10:43;5.28;;;2.13;;
21480;SDS011;10902;48.158;8.634;2022-12-29T09:13:09;7.15;;;2.35;;
21480;SDS011;10902;48.158;8.634;2022-12-29T09:15:35;4.65;;;1.85;;
21480;SDS011;10902;48.158;8.634;2022-12-29T09:18:00;7.60;;;2.50;;
21480;SDS011;10902;48.158;8.634;2022-12-29T09:20:26;5.63;;;1.90;;
21480;SDS011;10902;48.158;8.634;2022-12-29T09:22:52;4.68;;;1.70;;
21480;SDS011;10902;48.158;8.634;2022-12-29T09:25:17;4.60;;;1.80;;
21480;SDS011;10902;48.158;8.634;2022-12-29T09:27:43;4.75;;;1.90;;
21480;SDS011;10902;48.158;8.634;2022-12-29T09:30:09;3.70;;;1.52;;
21480;SDS011;10902;48.158;8.634;2022-12-29T09:32:36;5.38;;;1.80;;
21480;SDS011;10902;48.158;8.634;2022-12-29T09:35:03;4.95;;;1.67;;
21480;SDS011;10902;48.158;8.634;2022-12-29T09:37:29;5.45;;;1.73;;
21480;SDS011;10902;48.158;8.634;2022-12-29T09:39:54;5.95;;;1.50;;
21480;SDS011;10902;48.158;8.634;2022-12-29T09:47:29;5.68;;;1.70;;
21480;SDS011;10902;48.158;8.634;2022-12-29T09:50:00;5.95;;;1.75;;
21480;SDS011;10902;48.158;8.634;2022-12-29T09:52:31;4.15;;;1.70;;
21480;SDS011;10902;48.158;8.634;2022-12-29T09:55:04;5.88;;;1.95;;
21480;SDS011;10902;48.158;8.634;2022-12-29T09:57:57;4.75;;;1.92;;
21480;SDS011;10902;48.158;8.634;2022-12-29T10:00:37;5.07;;;1.90;;
21480;SDS011;10902;48.158;8.634;2022-12-29T10:03:16;4.47;;;2.13;;
21480;SDS011;10902;48.158;8.634;2022-12-29T10:19:37;4.63;;;1.80;;
21480;SDS011;10902;48.158;8.634;2022-12-29T10:24:37;7.35;;;2.33;;
21480;SDS011;10902;48.158;8.634;2022-12-29T10:27:05;4.70;;;2.00;;
21480;SDS011;10902;48.158;8.634;2022-12-29T10:29:37;5.22;;;2.65;;
21480;SDS011;10902;48.158;8.634;2022-12-29T10:32:51;4.97;;;2.47;;
21480;SDS011;10902;48.158;8.634;2022-12-29T10:35:21;6.25;;;2.38;;
21480;SDS011;10902;48.158;8.634;2022-12-29T10:40:27;5.65;;;2.60;;
21480;SDS011;10902;48.158;8.634;2022-12-29T10:43:03;7.53;;;2.63;;
21480;SDS011;10902;48.158;8.634;2022-12-29T10:45:42;5.63;;;2.50;;
21480;SDS011;10902;48.158;8.634;2022-12-29T10:48:20;5.65;;;2.20;;
21480;SDS011;10902;48.158;8.634;2022-12-29T10:50:49;6.82;;;2.60;;
21480;SDS011;10902;48.158;8.634;2022-12-29T10:53:19;6.15;;;2.38;;
21480;SDS011;10902;48.158;8.634;2022-12-29T10:55:48;6.63;;;2.90;;
21480;SDS011;10902;48.158;8.634;2022-12-29T10:58:15;6.10;;;2.20;;
21480;SDS011;10902;48.158;8.634;2022-12-29T11:00:41;4.85;;;2.47;;
21480;SDS011;10902;48.158;8.634;2022-12-29T11:08:33;6.82;;;2.50;;
21480;SDS011;10902;48.158;8.634;2022-12-29T11:11:04;5.75;;;2.63;;
21480;SDS011;10902;48.158;8.634;2022-12-29T11:16:13;7.05;;;2.60;;
21480;SDS011;10902;48.158;8.634;2022-12-29T11:18:39;6.25;;;2.67;;
21480;SDS011;10902;48.158;8.634;2022-12-29T11:21:52;8.23;;;3.30;;
21480;SDS011;10902;48.158;8.634;2022-12-29T11:24:05;7.13;;;3.40;;
21480;SDS011;10902;48.158;8.634;2022-12-29T11:26:44;9.05;;;3.10;;
21480;SDS011;10902;48.158;8.634;2022-12-29T11:29:17;7.13;;;2.70;;
21480;SDS011;10902;48.158;8.634;2022-12-29T11:31:47;7.03;;;2.60;;
21480;SDS011;10902;48.158;8.634;2022-12-29T11:34:19;5.25;;;2.80;;
21480;SDS011;10902;48.158;8.634;2022-12-29T11:37:00;7.78;;;2.88;;
21480;SDS011;10902;48.158;8.634;2022-12-29T11:42:47;6.22;;;2.75;;
21480;SDS011;10902;48.158;8.634;2022-12-29T11:45:19;6.78;;;2.60;;
21480;SDS011;10902;48.158;8.634;2022-12-29T11:47:49;6.82;;;2.70;;
21480;SDS011;10902;48.158;8.634;2022-12-29T11:50:23;5.60;;;2.35;;
21480;SDS011;10902;48.158;8.634;2022-12-29T11:53:02;5.72;;;2.63;;
21480;SDS011;10902;48.158;8.634;2022-12-29T11:55:39;7.05;;;3.20;;
21480;SDS011;10902;48.158;8.634;2022-12-29T11:58:05;6.40;;;3.25;;
21480;SDS011;10902;48.158;8.634;2022-12-29T12:00:32;7.68;;;3.72;;
21480;SDS011;10902;48.158;8.634;2022-12-29T12:03:03;7.32;;;4.40;;
21480;SDS011;10902;48.158;8.634;2022-12-29T12:08:18;9.40;;;5.82;;
21480;SDS011;10902;48.158;8.634;2022-12-29T12:14:21;6.50;;;3.42;;
21480;SDS011;10902;48.158;8.634;2022-12-29T12:16:27;11.50;;;5.07;;
21480;SDS011;10902;48.158;8.634;2022-12-29T12:21:47;6.05;;;3.17;;
21480;SDS011;10902;48.158;8.634;2022-12-29T12:24:29;6.57;;;1.90;;
21480;SDS011;10902;48.158;8.634;2022-12-29T12:29:36;4.78;;;1.58;;
21480;SDS011;10902;48.158;8.634;2022-12-29T12:32:12;5.05;;;1.55;;
21480;SDS011;10902;48.158;8.634;2022-12-29T12:34:41;4.45;;;1.45;;
21480;SDS011;10902;48.158;8.634;2022-12-29T12:42:34;3.30;;;1.00;;
21480;SDS011;10902;48.158;8.634;2022-12-29T12:45:51;4.82;;;1.10;;
21480;SDS011;10902;48.158;8.634;2022-12-29T12:48:24;4.40;;;1.08;;
21480;SDS011;10902;48.158;8.634;2022-12-29T12:54:05;3.00;;;1.08;;
21480;SDS011;10902;48.158;8.634;2022-12-29T12:57:17;2.80;;;0.90;;
21480;SDS011;10902;48.158;8.634;2022-12-29T13:00:03;4.88;;;1.63;;
21480;SDS011;10902;48.158;8.634;2022-12-29T13:02:46;6.15;;;2.20;;
21480;SDS011;10902;48.158;8.634;2022-12-29T13:10:29;4.32;;;1.20;;
21480;SDS011;10902;48.158;8.634;2022-12-29T13:24:27;4.10;;;1.20;;
21480;SDS011;10902;48.158;8.634;2022-12-29T13:37:28;4.07;;;1.20;;
21480;SDS011;10902;48.158;8.634;2022-12-29T13:47:26;2.60;;;0.80;;
21480;SDS011;10902;48.158;8.634;2022-12-29T14:39:41;3.50;;;1.05;;
21480;SDS011;10902;48.158;8.634;2022-12-29T15:00:30;2.47;;;0.80;;
21480;SDS011;10902;48.158;8.634;2022-12-29T15:03:11;3.17;;;1.30;;
21480;SDS011;10902;48.158;8.634;2022-12-29T15:06:15;5.13;;;1.42;;
21480;SDS011;10902;48.158;8.634;2022-12-29T15:09:44;3.03;;;1.05;;
21480;SDS011;10902;48.158;8.634;2022-12-29T15:12:47;3.10;;;1.15;;
21480;SDS011;10902;48.158;8.634;2022-12-29T15:33:27;4.90;;;1.95;;
21480;SDS011;10902;48.158;8.634;2022-12-29T15:39:53;5.60;;;2.53;;
21480;SDS011;10902;48.158;8.634;2022-12-29T15:43:13;3.80;;;1.55;;
21480;SDS011;10902;48.158;8.634;2022-12-29T15:46:11;5.72;;;1.35;;
21480;SDS011;10902;48.158;8.634;2022-12-29T15:48:45;3.83;;;1.52;;
21480;SDS011;10902;48.158;8.634;2022-12-29T15:51:16;3.22;;;1.27;;
21480;SDS011;10902;48.158;8.634;2022-12-29T15:54:30;4.22;;;1.95;;
21480;SDS011;10902;48.158;8.634;2022-12-29T15:57:36;4.22;;;1.42;;
21480;SDS011;10902;48.158;8.634;2022-12-29T16:03:25;5.10;;;2.03;;
21480;SDS011;10902;48.158;8.634;2022-12-29T16:06:23;4.05;;;2.13;;
21480;SDS011;10902;48.158;8.634;2022-12-29T16:09:16;4.72;;;2.35;;
21480;SDS011;10902;48.158;8.634;2022-12-29T16:15:26;6.07;;;3.28;;
21480;SDS011;10902;48.158;8.634;2022-12-29T16:21:25;5.47;;;2.90;;
21480;SDS011;10902;48.158;8.634;2022-12-29T16:24:13;5.05;;;2.40;;
21480;SDS011;10902;48.158;8.634;2022-12-29T16:26:45;6.25;;;2.72;;
21480;SDS011;10902;48.158;8.634;2022-12-29T16:29:13;5.45;;;2.45;;
21480;SDS011;10902;48.158;8.634;2022-12-29T16:31:52;4.00;;;1.80;;
21480;SDS011;10902;48.158;8.634;2022-12-29T16:34:31;4.78;;;2.40;;
21480;SDS011;10902;48.158;8.634;2022-12-29T16:36:59;4.10;;;1.73;;
21480;SDS011;10902;48.158;8.634;2022-12-29T16:41:56;4.90;;;1.30;;
21480;SDS011;10902;48.158;8.634;2022-12-29T16:44:23;3.35;;;1.38;;
21480;SDS011;10902;48.158;8.634;2022-12-29T16:49:26;3.65;;;1.50;;
21480;SDS011;10902;48.158;8.634;2022-12-29T16:51:52;3.78;;;1.30;;
21480;SDS011;10902;48.158;8.634;2022-12-29T16:54:23;4.85;;;1.90;;
21480;SDS011;10902;48.158;8.634;2022-12-29T16:56:54;5.45;;;2.20;;
21480;SDS011;10902;48.158;8.634;2022-12-29T16:59:31;5.40;;;2.55;;
21480;SDS011;10902;48.158;8.634;2022-12-29T17:01:59;5.25;;;2.72;;
21480;SDS011;10902;48.158;8.634;2022-12-29T17:04:28;6.75;;;2.70;;
21480;SDS011;10902;48.158;8.634;2022-12-29T17:06:54;5.47;;;2.05;;
21480;SDS011;10902;48.158;8.634;2022-12-29T17:09:24;3.75;;;1.52;;
21480;SDS011;10902;48.158;8.634;2022-12-29T17:11:52;5.22;;;2.47;;
21480;SDS011;10902;48.158;8.634;2022-12-29T17:20:19;5.00;;;2.88;;
21480;SDS011;10902;48.158;8.634;2022-12-29T17:22:47;6.07;;;3.08;;
21480;SDS011;10902;48.158;8.634;2022-12-29T17:25:13;5.10;;;3.20;;
21480;SDS011;10902;48.158;8.634;2022-12-29T17:27:43;7.90;;;3.58;;
21480;SDS011;10902;48.158;8.634;2022-12-29T17:30:15;6.28;;;3.33;;
21480;SDS011;10902;48.158;8.634;2022-12-29T17:32:46;4.93;;;2.47;;
21480;SDS011;10902;48.158;8.634;2022-12-29T17:35:19;7.20;;;3.10;;
21480;SDS011;10902;48.158;8.634;2022-12-29T17:37:45;6.10;;;2.85;;
21480;SDS011;10902;48.158;8.634;2022-12-29T17:40:15;6.57;;;2.85;;
21480;SDS011;10902;48.158;8.634;2022-12-29T17:42:44;5.38;;;2.75;;
21480;SDS011;10902;48.158;8.634;2022-12-29T17:45:17;5.97;;;2.92;;
21480;SDS011;10902;48.158;8.634;2022-12-29T17:47:53;6.43;;;3.25;;
21480;SDS011;10902;48.158;8.634;2022-12-29T17:50:21;7.32;;;3.47;;
21480;SDS011;10902;48.158;8.634;2022-12-29T17:52:50;6.65;;;3.30;;
21480;SDS011;10902;48.158;8.634;2022-12-29T17:55:19;5.85;;;3.10;;
21480;SDS011;10902;48.158;8.634;2022-12-29T17:57:46;5.97;;;2.55;;
21480;SDS011;10902;48.158;8.634;2022-12-29T18:03:01;6.90;;;2.88;;
21480;SDS011;10902;48.158;8.634;2022-12-29T18:05:28;4.70;;;2.13;;
21480;SDS011;10902;48.158;8.634;2022-12-29T18:07:55;4.95;;;2.40;;
21480;SDS011;10902;48.158;8.634;2022-12-29T18:10:23;5.32;;;2.72;;
21480;SDS011;10902;48.158;8.634;2022-12-29T18:12:51;8.10;;;3.28;;
21480;SDS011;10902;48.158;8.634;2022-12-29T18:15:20;5.38;;;2.75;;
21480;SDS011;10902;48.158;8.634;2022-12-29T18:18:10;5.85;;;3.00;;
21480;SDS011;10902;48.158;8.634;2022-12-29T18:20:38;5.88;;;3.10;;
21480;SDS011;10902;48.158;8.634;2022-12-29T18:23:05;6.25;;;2.90;;
21480;SDS011;10902;48.158;8.634;2022-12-29T18:25:39;5.47;;;3.20;;
21480;SDS011;10902;48.158;8.634;2022-12-29T18:28:14;5.07;;;2.67;;
21480;SDS011;10902;48.158;8.634;2022-12-29T18:30:39;6.25;;;2.80;;
21480;SDS011;10902;48.158;8.634;2022-12-29T18:33:05;8.55;;;3.25;;
21480;SDS011;10902;48.158;8.634;2022-12-29T18:35:38;4.78;;;2.75;;
21480;SDS011;10902;48.158;8.634;2022-12-29T18:38:07;7.78;;;3.08;;
21480;SDS011;10902;48.158;8.634;2022-12-29T18:40:33;5.68;;;2.40;;
21480;SDS011;10902;48.158;8.634;2022-12-29T18:42:59;5.03;;;2.70;;
21480;SDS011;10902;48.158;8.634;2022-12-29T18:45:25;5.50;;;2.72;;
21480;SDS011;10902;48.158;8.634;2022-12-29T18:47:52;6.80;;;2.55;;
21480;SDS011;10902;48.158;8.634;2022-12-29T18:50:17;9.18;;;2.80;;
21480;SDS011;10902;48.158;8.634;2022-12-29T18:52:43;6.90;;;2.65;;
21480;SDS011;10902;48.158;8.634;2022-12-29T18:55:13;5.50;;;3.00;;
21480;SDS011;10902;48.158;8.634;2022-12-29T18:57:41;5.90;;;2.38;;
21480;SDS011;10902;48.158;8.634;2022-12-29T19:00:07;5.80;;;2.75;;
21480;SDS011;10902;48.158;8.634;2022-12-29T19:02:34;6.45;;;2.70;;
21480;SDS011;10902;48.158;8.634;2022-12-29T19:04:59;6.20;;;2.95;;
21480;SDS011;10902;48.158;8.634;2022-12-29T19:07:25;6.05;;;2.60;;
21480;SDS011;10902;48.158;8.634;2022-12-29T19:09:51;5.80;;;3.13;;
21480;SDS011;10902;48.158;8.634;2022-12-29T19:12:17;6.78;;;3.40;;